Terminal Aerodrome Forecast
Issued by NWS Birmingham, AL

Home | Current Version | Previous Version | Text Only | Print | Product List | Glossary On
Versions: 1 2 3 4 5 6 7 8 9 10 11 12 13 14 15 16 17 18 19 20 21 22 23 24 25 26 27 28 29 30 31 32 33 34 35 36 37 38 39 40 41 42
618
FTUS44 KBMX 120533
TAFBHM
TAF
KBHM 120533Z 1206/1306 06004KT P6SM SKC
     FM121000 09005KT P6SM SKC WS020/11040KT
     FM121500 11010G22KT P6SM FEW250
     FM122200 12007KT P6SM BKN045
     FM130000 11006KT P6SM VCSH BKN030=

USA.gov is the U.S. government's official web portal to all federal, state and local government web resources and services.